SLRY  Reyes Airport

Add Bookmark

Reyes, Bolivia

Status IATA
Operational REY
Latitude Longitude
14° 18' 15" S 67° 21' 12" W
-14.304400 -67.353401
Local (DST -4) UTC (GMT -4)
Oct 1, 2014 08:19 Oct 2, 2014 00:19
Sunrise-Sunset Local UTC
Begin Civil Twilight 05:49 09:49
Sunrise 06:10 10:10
Sunset 06:27 22:27
End Civil Twilight 06:48 22:48

Current Weather

METAR Observed VFR
SLRY 012200Z 32003KT 9999 FEW020 SCT200 35/21 Q1009 Wed, Oct 1, 2014 @ 22:00 UTC
(2 Hours, 19 Minutes ago)
Visual Flight Rules
Wind Visibility Clouds Conditions
320° at 3 knots (6 kph) 10 km or more
  • Few at 2,000' AGL
  • Scattered at 20,000' AGL
  • No significant weather
Temperatures Readings Precipitation
Current Temp 35°C (95°F)
Dewpoint 21°C (70°F)
Heat Index 38°C (101°F)
Humidity 44%
Altimeter 29.79"Hg
Sea Level Pressure 1009mb
Field Elevation 918.64'
None Recorded

Additional weather within a 92.6km radius of SLRY

Map ICAO Location
SLRQ 20.7km S (229°)

24 Hour Weather History

Loading
-

24 Hour Weather Graphs

Loading
-

CheckWX.com is intended as a tool to help pilots better visualize weather data. It is not intended as a substitute for an official weather briefing obtained from a Flight Service Station. CheckWX.com does not meet the FAA requirements for an official pre-flight weather briefing. Therefore, it's important that pilots still call and obtain an official FSS pre-flight weather briefing.